Terminal Aerodrome Forecast
Issued by NWS

Home | Current Version | Previous Version | Text Only | Print | Product List | Glossary On
Versions: 1 2 3 4 5 6 7 8 9 10 11 12
006
FTUS43 KMQT 301135
TAFCMX
TAF
KCMX 301135Z 3012/0112 04006KT P6SM SCT070
     FM301500 05011G17KT P6SM SCT030
     FM302100 06012G19KT P6SM SCT035
     FM010000 05009KT P6SM FEW060=

USA.gov is the U.S. government's official web portal to all federal, state and local government web resources and services.